Time;durP1;ratioP1;P1;durP2;ratioP2;P2;SDS_P1;SDS_P2;PMS_P1;PMS_P2;Temp;Humidity;BMP_temperature;BMP_pressure;BME280_temperature;BME280_humidity;BME280_pressure;Samples;Min_cycle;Max_cycle;Signal;HPM_P1;HPM_P2
2022/05/05 00:01:00;;;;;;;11.15;7.45;;;;;;;22.30;51.61;98799.64;1674377;84;26043;-88
2022/05/05 00:03:26;;;;;;;9.65;7.37;;;;;;;22.29;51.61;98797.46;1674342;85;25509;-88
2022/05/05 00:05:51;;;;;;;10.70;7.75;;;;;;;22.29;51.61;98795.25;1674409;84;28261;-88
2022/05/05 00:08:17;;;;;;;10.45;7.40;;;;;;;22.29;51.60;98802.23;1674442;84;25704;-88
2022/05/05 00:16:11;;;;;;;10.50;7.47;;;;;;;22.26;51.63;98803.02;1674154;85;25604;-88
2022/05/05 00:18:37;;;;;;;9.73;7.70;;;;;;;22.26;51.64;98797.43;1671338;84;28283;-88
2022/05/05 00:21:03;;;;;;;11.55;7.70;;;;;;;22.26;51.65;98801.61;1667045;85;25450;-88
2022/05/05 00:23:29;;;;;;;10.10;7.33;;;;;;;22.25;51.63;98800.03;1667078;85;25708;-88
2022/05/05 00:25:55;;;;;;;10.05;7.65;;;;;;;22.25;51.67;98800.03;1666954;85;26108;-88
2022/05/05 00:28:21;;;;;;;10.68;7.53;;;;;;;22.22;51.65;98793.83;1667201;85;25637;-87
2022/05/05 00:30:47;;;;;;;10.35;7.15;;;;;;;22.22;51.66;98796.61;1667082;86;28295;-88
2022/05/05 00:33:13;;;;;;;9.15;7.10;;;;;;;22.20;51.68;98785.84;1667131;85;25632;-88
2022/05/05 00:35:39;;;;;;;9.45;7.37;;;;;;;22.21;51.71;98796.39;1667020;85;25746;-88
2022/05/05 00:38:05;;;;;;;9.40;7.45;;;;;;;22.18;51.70;98791.81;1667040;85;26024;-88
2022/05/05 00:40:31;;;;;;;10.45;7.47;;;;;;;22.17;51.71;98790.19;1666937;85;25815;-88
2022/05/05 00:43:02;;;;;;;11.25;7.25;;;;;;;22.16;51.73;98782.20;1667032;85;27386;-88
2022/05/05 00:45:28;;;;;;;10.58;7.50;;;;;;;22.15;51.77;98777.83;1666809;85;25605;-88
2022/05/05 00:48:05;;;;;;;11.63;7.75;;;;;;;22.16;51.76;98779.42;1667051;85;25562;-88
2022/05/05 00:50:36;;;;;;;9.50;7.55;;;;;;;22.18;51.71;98779.84;1666237;85;26813;-88
2022/05/05 00:53:04;;;;;;;9.83;7.58;;;;;;;22.17;51.68;98782.44;1667226;85;25455;-87
2022/05/05 00:55:37;;;;;;;10.40;7.67;;;;;;;22.17;51.63;98787.40;1667221;85;28328;-88
2022/05/05 00:58:04;;;;;;;9.90;7.53;;;;;;;22.17;51.60;98782.44;1666933;85;25736;-87
2022/05/05 01:00:32;;;;;;;9.08;7.20;;;;;;;22.17;51.62;98781.82;1667010;85;25697;-88
2022/05/05 01:03:00;;;;;;;11.18;7.65;;;;;;;22.16;51.60;98781.63;1667081;86;27024;-88
2022/05/05 01:05:28;;;;;;;10.15;8.00;;;;;;;22.16;51.63;98776.63;1667120;86;25716;-88
2022/05/05 01:07:58;;;;;;;9.63;7.35;;;;;;;22.15;51.61;98775.84;1667067;85;28479;-88
2022/05/05 01:10:25;;;;;;;11.12;7.65;;;;;;;22.16;51.62;98775.23;1666940;85;25522;-88
2022/05/05 01:12:52;;;;;;;8.95;7.65;;;;;;;22.15;51.62;98775.84;1667212;85;25474;-88
2022/05/05 01:15:19;;;;;;;9.78;7.50;;;;;;;22.16;51.61;98773.84;1667027;86;26886;-87
2022/05/05 01:17:45;;;;;;;11.20;8.10;;;;;;;22.15;51.61;98774.45;1667227;86;25712;-87
2022/05/05 01:20:17;;;;;;;11.38;7.83;;;;;;;22.15;51.61;98776.43;1666828;85;27231;-87
2022/05/05 01:22:44;;;;;;;9.78;7.40;;;;;;;22.14;51.63;98777.02;1666814;85;26041;-87
2022/05/05 01:28:11;;;;;;;9.35;7.47;;;;;;;22.12;51.65;98775.23;1666749;86;25451;-87
2022/05/05 01:30:46;;;;;;;9.13;7.80;;;;;;;22.12;51.66;98777.20;1666884;85;25628;-87
2022/05/05 01:33:21;;;;;;;10.78;7.78;;;;;;;22.10;51.66;98781.78;1666979;86;27486;-88
2022/05/05 01:35:51;;;;;;;8.88;7.55;;;;;;;22.10;51.71;98780.39;1666955;85;25827;-87
2022/05/05 01:38:20;;;;;;;9.13;7.60;;;;;;;22.09;51.71;98780.78;1667396;85;25800;-87
2022/05/05 01:40:46;;;;;;;10.35;7.95;;;;;;;22.08;51.71;98781.98;1667207;85;26827;-87
2022/05/05 01:43:14;;;;;;;9.33;7.60;;;;;;;22.07;51.73;98776.98;1667228;85;25703;-87
2022/05/05 01:45:42;;;;;;;10.13;8.00;;;;;;;22.05;51.73;98774.58;1667147;85;26902;-87
2022/05/05 01:48:08;;;;;;;11.08;7.80;;;;;;;22.07;51.74;98781.17;1667124;86;25758;-87
2022/05/05 01:50:35;;;;;;;9.23;7.50;;;;;;;22.06;51.76;98786.55;1667091;85;25488;-87
2022/05/05 01:53:02;;;;;;;9.38;7.50;;;;;;;22.06;51.72;98787.36;1667117;85;26038;-88
2022/05/05 01:55:34;;;;;;;9.75;7.62;;;;;;;22.06;51.75;98793.53;1667182;85;25624;-87
2022/05/05 01:57:58;;;;;;;9.68;7.37;;;;;;;22.03;51.76;98786.74;1666493;85;25929;-87
2022/05/05 02:00:25;;;;;;;8.78;7.20;;;;;;;22.05;51.76;98791.94;1667051;85;25451;-87
2022/05/05 02:02:51;;;;;;;10.13;7.75;;;;;;;22.04;51.74;98790.31;1667110;85;25768;-88
2022/05/05 02:05:18;;;;;;;9.30;7.55;;;;;;;22.04;51.75;98792.52;1667045;85;26091;-87
2022/05/05 02:07:45;;;;;;;10.85;7.65;;;;;;;22.03;51.73;98789.53;1667326;86;25925;-87
2022/05/05 02:10:14;;;;;;;10.15;7.85;;;;;;;22.04;51.77;98788.92;1667290;86;27340;-87
2022/05/05 02:12:42;;;;;;;10.05;7.47;;;;;;;22.03;51.77;98792.91;1667087;85;25640;-87
2022/05/05 02:15:11;;;;;;;10.35;7.97;;;;;;;22.03;51.75;98797.09;1667121;85;25720;-88
2022/05/05 02:17:40;;;;;;;8.98;7.40;;;;;;;22.02;51.73;98800.47;1667163;85;26219;-88
2022/05/05 02:20:11;;;;;;;9.18;7.58;;;;;;;22.00;51.77;98795.89;1672273;85;25676;-88
2022/05/05 02:22:39;;;;;;;10.72;7.87;;;;;;;21.99;51.79;98792.88;1674433;85;27383;-87
2022/05/05 02:25:06;;;;;;;10.68;7.97;;;;;;;21.98;51.80;98798.26;1674279;85;25625;-88
2022/05/05 02:27:51;;;;;;;10.38;8.00;;;;;;;21.97;51.81;98798.64;1674415;84;25755;-88
2022/05/05 02:30:20;;;;;;;10.48;8.30;;;;;;;21.99;51.81;98799.84;1674210;85;26980;-88
2022/05/05 02:32:47;;;;;;;9.25;7.83;;;;;;;21.98;51.81;98803.84;1674339;85;25704;-88
2022/05/05 02:35:14;;;;;;;16.00;8.15;;;;;;;21.97;51.79;98805.03;1674455;84;27021;-88
2022/05/05 02:40:25;;;;;;;10.20;7.78;;;;;;;21.96;51.82;98803.41;1674124;85;25664;-88
2022/05/05 02:42:52;;;;;;;9.50;7.87;;;;;;;21.96;51.80;98809.61;1674383;85;26199;-88
2022/05/05 02:45:18;;;;;;;9.10;7.25;;;;;;;21.96;51.79;98813.17;1650912;85;25752;-88
2022/05/05 02:47:46;;;;;;;9.13;7.47;;;;;;;21.94;51.80;98810.77;1674424;84;28169;-88
2022/05/05 02:50:12;;;;;;;9.78;7.87;;;;;;;21.96;51.82;98816.58;1674003;85;25897;-88
2022/05/05 02:52:37;;;;;;;9.73;7.47;;;;;;;21.94;51.80;98812.78;1674502;84;25648;-88
2022/05/05 02:55:05;;;;;;;9.50;7.80;;;;;;;21.93;51.84;98811.97;1674501;85;26900;-87
2022/05/05 02:57:31;;;;;;;9.55;7.80;;;;;;;21.93;51.82;98811.16;1674400;84;25654;-88
2022/05/05 02:59:58;;;;;;;9.95;8.05;;;;;;;21.92;51.83;98813.17;1674381;84;26929;-87
2022/05/05 03:02:24;;;;;;;9.10;7.47;;;;;;;21.91;51.83;98809.38;1674023;85;25900;-87
2022/05/05 03:04:51;;;;;;;10.18;7.62;;;;;;;21.90;51.88;98811.35;1674458;84;25467;-88
2022/05/05 03:07:17;;;;;;;10.85;8.23;;;;;;;21.91;51.85;98810.77;1674438;85;25729;-88
2022/05/05 03:09:44;;;;;;;9.90;7.42;;;;;;;21.91;51.86;98816.34;1674450;84;25516;-88
2022/05/05 03:12:11;;;;;;;10.10;8.00;;;;;;;21.89;51.88;98815.34;1674436;85;26838;-88
2022/05/05 03:14:38;;;;;;;10.85;8.05;;;;;;;21.89;51.84;98811.16;1674226;84;25527;-88
2022/05/05 03:17:05;;;;;;;9.38;7.78;;;;;;;21.89;51.88;98811.16;1674438;85;25538;-88
2022/05/05 03:19:31;;;;;;;10.60;8.05;;;;;;;21.90;51.88;98820.30;1671309;85;26241;-88
2022/05/05 03:21:57;;;;;;;9.40;7.45;;;;;;;21.89;51.85;98818.71;1667295;85;25653;-88
2022/05/05 03:24:23;;;;;;;10.23;7.90;;;;;;;21.88;51.89;98813.72;1666895;85;27577;-88
2022/05/05 03:26:49;;;;;;;10.15;7.87;;;;;;;21.88;51.88;98819.30;1666992;86;25931;-88
2022/05/05 03:29:15;;;;;;;9.95;7.53;;;;;;;21.87;51.89;98817.70;1667032;85;25502;-88
2022/05/05 03:31:41;;;;;;;9.68;7.95;;;;;;;21.86;51.89;98818.91;1667123;85;26065;-88
2022/05/05 03:34:07;;;;;;;9.43;7.83;;;;;;;21.85;51.91;98819.29;1667108;85;25648;-88
2022/05/05 03:36:33;;;;;;;11.10;7.97;;;;;;;21.85;51.93;98820.09;1667029;85;27281;-88
2022/05/05 03:38:59;;;;;;;9.20;7.62;;;;;;;21.85;51.92;98822.89;1667037;85;25538;-88
2022/05/05 03:41:26;;;;;;;10.08;8.00;;;;;;;21.86;51.91;98825.06;1667091;86;25455;-88
2022/05/05 03:43:54;;;;;;;10.53;8.30;;;;;;;21.85;51.95;98821.49;1666936;85;26906;-88
2022/05/05 03:46:20;;;;;;;9.65;7.70;;;;;;;21.85;51.92;98823.47;1666845;86;25641;-87
2022/05/05 03:48:46;;;;;;;10.25;8.03;;;;;;;21.85;51.92;98821.49;1667227;85;27545;-88
2022/05/05 03:51:12;;;;;;;12.68;8.78;;;;;;;21.83;51.95;98821.06;1667150;85;25653;-88
2022/05/05 03:53:38;;;;;;;10.30;8.30;;;;;;;21.84;51.94;98828.23;1667096;85;25713;-88
2022/05/05 03:56:05;;;;;;;10.88;8.40;;;;;;;21.83;51.96;98835.02;1666951;85;26306;-88
2022/05/05 03:58:32;;;;;;;10.60;8.23;;;;;;;21.84;51.93;98833.03;1667122;85;25732;-87
2022/05/05 04:00:58;;;;;;;9.45;7.95;;;;;;;21.83;51.94;98837.80;1667073;85;27358;-87
2022/05/05 04:03:34;;;;;;;11.90;8.18;;;;;;;21.83;51.95;98841.98;1666973;85;25668;-87
2022/05/05 04:06:05;;;;;;;10.82;8.20;;;;;;;21.84;51.94;98846.98;1666913;85;25691;-87
2022/05/05 04:08:34;;;;;;;9.20;7.87;;;;;;;21.84;51.95;98846.37;1666772;85;26011;-87
2022/05/05 04:11:00;;;;;;;9.75;8.10;;;;;;;21.83;51.96;98845.36;1667019;85;25662;-88
2022/05/05 04:13:26;;;;;;;10.23;8.10;;;;;;;21.81;52.02;98847.95;1667105;85;28516;-87
2022/05/05 04:15:53;;;;;;;8.88;7.97;;;;;;;21.81;52.01;98853.53;1667050;85;25632;-87
2022/05/05 04:18:20;;;;;;;10.85;8.08;;;;;;;21.83;52.01;98853.73;1667011;85;25946;-87
2022/05/05 04:20:47;;;;;;;10.93;8.13;;;;;;;21.81;52.01;98856.32;1672559;85;25804;-87
2022/05/05 04:23:13;;;;;;;11.20;8.10;;;;;;;21.80;52.04;98853.33;1674033;85;25227;-87
2022/05/05 04:25:44;;;;;;;9.18;7.95;;;;;;;21.81;52.02;98849.93;1674359;84;27461;-87
2022/05/05 04:28:13;;;;;;;10.10;8.13;;;;;;;21.79;52.10;98845.34;1674176;84;25919;-87
2022/05/05 04:30:40;;;;;;;9.68;7.83;;;;;;;21.78;52.10;98850.70;1674304;84;25673;-87
2022/05/05 04:33:09;;;;;;;10.48;8.50;;;;;;;21.78;52.12;98852.91;1674598;85;26056;-87
2022/05/05 04:35:36;;;;;;;11.18;8.10;;;;;;;21.80;52.11;98848.34;1674406;85;25669;-87
2022/05/05 04:38:03;;;;;;;10.30;8.30;;;;;;;21.79;52.10;98850.31;1674205;84;27384;-88
2022/05/05 04:40:29;;;;;;;9.93;8.05;;;;;;;21.80;52.14;98852.52;1674198;84;25680;-87
2022/05/05 04:42:56;;;;;;;10.08;8.20;;;;;;;21.80;52.12;98857.52;1674383;85;25716;-88
2022/05/05 04:45:22;;;;;;;10.70;8.28;;;;;;;21.79;52.13;98850.93;1674033;85;26088;-87
2022/05/05 04:47:48;;;;;;;9.33;8.03;;;;;;;21.79;52.14;98856.51;1674436;84;25692;-88
2022/05/05 04:50:27;;;;;;;9.05;7.97;;;;;;;21.80;52.16;98859.50;1674303;85;27301;-87
2022/05/05 04:52:49;;;;;;;9.73;8.40;;;;;;;21.79;52.20;98856.51;1672705;85;25819;-88
2022/05/05 04:55:15;;;;;;;9.45;8.20;;;;;;;21.79;52.23;98862.09;1674510;85;25447;-87
2022/05/05 04:57:42;;;;;;;9.73;8.25;;;;;;;21.79;52.21;98864.27;1674447;85;25991;-87
2022/05/05 05:00:09;;;;;;;9.38;8.13;;;;;;;21.78;52.25;98865.45;1674483;84;25619;-88
2022/05/05 05:02:36;;;;;;;9.48;7.70;;;;;;;21.79;52.23;98869.84;1674697;85;27374;-87
2022/05/05 05:05:04;;;;;;;10.93;8.38;;;;;;;21.80;52.25;98871.46;1674245;84;25520;-88
2022/05/05 05:07:30;;;;;;;9.78;7.80;;;;;;;21.78;52.26;98873.02;1674410;85;25725;-87
2022/05/05 05:09:56;;;;;;;10.20;8.40;;;;;;;21.80;52.26;98873.44;1674405;85;26071;-87
2022/05/05 05:12:23;;;;;;;10.18;8.28;;;;;;;21.77;52.26;98870.84;1674572;85;25684;-87
2022/05/05 05:14:49;;;;;;;9.60;8.20;;;;;;;21.77;52.29;98868.05;1674578;85;27382;-87
2022/05/05 05:17:16;;;;;;;10.93;8.20;;;;;;;21.77;52.29;98868.05;1674493;85;25700;-88
2022/05/05 05:19:42;;;;;;;9.90;8.30;;;;;;;21.77;52.31;98870.03;1672902;85;25637;-87
2022/05/05 05:22:08;;;;;;;9.50;8.50;;;;;;;21.76;52.30;98869.22;1667257;85;26678;-88
2022/05/05 05:24:35;;;;;;;9.95;8.43;;;;;;;21.76;52.34;98868.44;1667429;85;25431;-88
2022/05/05 05:27:01;;;;;;;10.30;8.23;;;;;;;21.76;52.31;98867.82;1667132;85;27382;-87
2022/05/05 05:29:27;;;;;;;10.98;8.23;;;;;;;21.75;52.37;98874.56;1667177;86;25612;-87
2022/05/05 05:31:53;;;;;;;10.20;8.40;;;;;;;21.73;52.39;98869.95;1667253;85;25728;-88
2022/05/05 05:34:20;;;;;;;9.63;7.70;;;;;;;21.72;52.42;98873.94;1667183;85;25995;-87
2022/05/05 05:36:49;;;;;;;10.85;8.55;;;;;;;21.72;52.44;98875.91;1667244;86;25688;-88
2022/05/05 05:39:14;;;;;;;9.65;8.48;;;;;;;21.73;52.50;98876.92;1666567;85;25890;-87
2022/05/05 05:41:40;;;;;;;10.15;8.45;;;;;;;21.73;52.47;98877.54;1667143;85;25796;-88
2022/05/05 05:44:07;;;;;;;10.30;8.10;;;;;;;21.73;52.48;98870.56;1667132;86;25712;-87
2022/05/05 05:46:33;;;;;;;10.23;8.35;;;;;;;21.74;52.47;98873.55;1667308;86;26038;-88
2022/05/05 05:49:00;;;;;;;10.18;8.30;;;;;;;21.77;52.45;98875.61;1667161;86;25669;-88
2022/05/05 05:51:26;;;;;;;11.85;8.40;;;;;;;21.77;52.44;98873.63;1667233;85;27414;-88
2022/05/05 05:53:53;;;;;;;9.65;8.33;;;;;;;21.77;52.46;98878.39;1667077;85;25835;-87
2022/05/05 05:56:19;;;;;;;9.48;8.33;;;;;;;21.79;52.50;98888.58;1667369;85;25510;-88
2022/05/05 05:58:46;;;;;;;13.62;9.33;;;;;;;21.79;52.47;98881.00;1667109;85;25982;-88
2022/05/05 06:01:12;;;;;;;13.78;10.43;;;;;;;21.79;52.50;98883.00;1667203;85;25478;-88
2022/05/05 06:03:54;;;;;;;13.65;11.00;;;;;;;21.78;52.51;98886.38;1667240;86;27326;-88
2022/05/05 06:06:21;;;;;;;15.53;11.18;;;;;;;21.77;52.37;98885.37;1666906;86;25664;-88
2022/05/05 06:08:48;;;;;;;13.60;10.85;;;;;;;21.77;52.19;98885.37;1667105;85;25466;-88
2022/05/05 06:11:14;;;;;;;13.13;10.45;;;;;;;21.79;52.13;98889.37;1667179;85;26008;-88
2022/05/05 06:13:41;;;;;;;12.68;10.98;;;;;;;21.81;52.19;98888.98;1666900;85;25503;-88
2022/05/05 06:16:09;;;;;;;12.88;10.82;;;;;;;21.80;52.21;98895.17;1667232;85;27304;-87
2022/05/05 06:18:40;;;;;;;17.87;10.55;;;;;;;21.79;52.18;98890.77;1666799;85;25613;-87
2022/05/05 06:21:06;;;;;;;;;;;;;;;21.79;52.26;98896.95;1669364;85;25732;-87
2022/05/05 06:23:33;;;;;;;15.00;11.00;;;;;;;21.77;52.37;98895.13;1638506;87;26932;-87
2022/05/05 06:26:00;;;;;;;14.85;10.72;;;;;;;21.78;52.41;98898.12;1667118;86;25682;-87
2022/05/05 06:28:26;;;;;;;14.33;11.30;;;;;;;21.79;52.50;98904.70;1649193;87;27372;-87
2022/05/05 06:30:53;;;;;;;17.02;11.70;;;;;;;21.83;52.57;98900.56;1649310;87;25699;-87
2022/05/05 06:33:19;;;;;;;19.77;12.40;;;;;;;21.86;52.73;98906.77;1649843;87;25459;-88
2022/05/05 06:35:45;;;;;;;17.35;11.75;;;;;;;21.87;52.74;98906.97;1638684;87;26666;-87
2022/05/05 06:38:12;;;;;;;16.77;12.60;;;;;;;21.89;52.71;98903.22;1638614;87;25499;-88
2022/05/05 06:40:38;;;;;;;18.82;11.78;;;;;;;21.91;52.63;98899.42;1638608;87;27440;-88
2022/05/05 06:43:05;;;;;;;19.00;12.37;;;;;;;21.92;52.47;98901.63;1638576;87;25674;-88
2022/05/05 06:45:31;;;;;;;19.10;12.30;;;;;;;21.92;52.33;98898.26;1638448;87;25696;-88
2022/05/05 06:47:58;;;;;;;16.15;12.25;;;;;;;21.93;52.19;98896.25;1638647;87;26655;-88
2022/05/05 06:50:26;;;;;;;17.25;12.65;;;;;;;21.92;52.11;98902.45;1638451;87;25439;-88
2022/05/05 06:52:53;;;;;;;18.15;12.47;;;;;;;21.93;52.01;98900.44;1649136;87;27574;-88
2022/05/05 06:55:19;;;;;;;19.15;13.32;;;;;;;21.95;51.99;98906.45;1649272;87;25638;-88
2022/05/05 06:57:47;;;;;;;19.80;13.05;;;;;;;21.97;51.86;98908.84;1649190;87;25788;-88
2022/05/05 07:00:14;;;;;;;17.50;13.28;;;;;;;21.99;51.85;98910.67;1649167;87;26615;-88
2022/05/05 07:02:41;;;;;;;19.77;13.43;;;;;;;21.99;51.82;98911.45;1649149;87;25593;-87
2022/05/05 07:05:23;;;;;;;18.20;12.70;;;;;;;21.99;51.80;98914.86;1649192;87;27427;-88
2022/05/05 07:07:51;;;;;;;19.35;12.73;;;;;;;22.00;51.98;98908.89;1648831;87;25487;-88
2022/05/05 07:13:04;;;;;;;19.35;12.20;;;;;;;22.02;52.00;98914.09;1648773;87;25545;-88
2022/05/05 07:15:30;;;;;;;14.28;12.15;;;;;;;22.06;52.02;98919.09;1648950;86;25712;-88
2022/05/05 07:17:57;;;;;;;15.72;11.88;;;;;;;22.08;52.08;98914.52;1649162;87;28192;-88
2022/05/05 07:20:23;;;;;;;16.37;11.70;;;;;;;22.08;52.10;98920.92;1649594;86;25514;-88
2022/05/05 07:22:51;;;;;;;18.35;12.40;;;;;;;22.09;52.17;98917.52;1661838;86;25654;-88
2022/05/05 07:25:19;;;;;;;16.40;12.13;;;;;;;22.08;52.17;98921.50;1661766;85;26050;-87
2022/05/05 07:27:46;;;;;;;15.98;12.18;;;;;;;22.08;52.17;98920.92;1651431;85;25696;-87
2022/05/05 07:30:14;;;;;;;15.08;11.15;;;;;;;22.09;52.23;98919.72;1651873;86;27305;-87
2022/05/05 07:32:42;;;;;;;17.27;11.33;;;;;;;22.10;52.24;98926.11;1651618;86;25704;-89
2022/05/05 07:35:11;;;;;;;18.12;11.33;;;;;;;22.12;52.23;98923.72;1651828;86;25450;-87
2022/05/05 07:37:39;;;;;;;14.63;10.95;;;;;;;22.12;52.29;98924.53;1661731;86;26097;-87
2022/05/05 07:40:08;;;;;;;13.75;10.32;;;;;;;22.13;52.31;98917.75;1661706;85;25708;-87
2022/05/05 07:42:35;;;;;;;12.78;10.30;;;;;;;22.16;52.30;98922.56;1651825;86;28220;-88
2022/05/05 07:45:02;;;;;;;13.50;10.85;;;;;;;22.19;52.27;98919.58;1694933;84;25661;-88
2022/05/05 07:47:29;;;;;;;13.48;11.20;;;;;;;22.21;52.28;98921.98;1695441;84;25531;-87
2022/05/05 07:49:55;;;;;;;12.20;10.35;;;;;;;22.22;52.30;98925.00;1695386;84;26041;-87
2022/05/05 07:52:21;;;;;;;12.20;9.93;;;;;;;22.23;52.32;98923.22;1649071;86;25444;-88
2022/05/05 07:54:48;;;;;;;13.83;9.80;;;;;;;22.25;52.27;98925.02;1695456;84;28188;-87
2022/05/05 07:57:17;;;;;;;12.98;9.80;;;;;;;22.28;52.26;98933.23;1695452;84;25793;-88
2022/05/05 07:59:44;;;;;;;14.40;10.25;;;;;;;22.30;52.33;98926.65;1695016;84;25617;-88
2022/05/05 08:02:13;;;;;;;12.33;9.70;;;;;;;22.31;52.41;98932.46;1695098;84;26039;-88
2022/05/05 08:04:38;;;;;;;12.75;10.00;;;;;;;22.31;52.44;98934.64;1694859;84;25673;-87
2022/05/05 08:07:05;;;;;;;12.05;10.20;;;;;;;22.34;52.46;98934.48;1648926;87;27423;-87
2022/05/05 08:09:31;;;;;;;11.85;9.33;;;;;;;22.38;52.42;98934.48;1695261;84;25807;-87
2022/05/05 08:11:59;;;;;;;14.70;10.30;;;;;;;22.39;52.42;98938.28;1695509;84;25653;-88
2022/05/05 08:14:27;;;;;;;12.65;9.85;;;;;;;22.41;52.46;98933.71;1654098;86;26101;-88
2022/05/05 08:16:55;;;;;;;12.07;10.00;;;;;;;22.42;52.48;98937.52;1695342;84;25447;-88
2022/05/05 08:19:22;;;;;;;12.78;9.63;;;;;;;22.42;52.50;98930.53;1695242;84;28366;-88
2022/05/05 08:21:49;;;;;;;12.82;9.20;;;;;;;22.44;52.49;98939.33;1695157;83;25631;-88
2022/05/05 08:29:45;;;;;;;13.53;8.88;;;;;;;22.44;52.52;98943.52;1695139;84;25720;-87
2022/05/05 08:32:11;;;;;;;14.33;9.40;;;;;;;22.45;52.59;98938.72;1695375;84;27340;-88
2022/05/05 08:34:38;;;;;;;11.93;8.90;;;;;;;22.47;52.63;98941.13;1695245;84;25720;-88
2022/05/05 08:37:05;;;;;;;13.60;8.80;;;;;;;22.49;52.57;98942.36;1695353;84;25487;-88
2022/05/05 08:39:31;;;;;;;11.85;9.03;;;;;;;22.50;52.68;98936.16;1695114;84;26063;-88
2022/05/05 08:41:58;;;;;;;11.03;9.00;;;;;;;22.53;52.68;98942.36;1695429;84;25701;-88
2022/05/05 08:44:24;;;;;;;11.08;8.60;;;;;;;22.54;52.71;98939.19;1695425;84;28088;-88
2022/05/05 08:46:53;;;;;;;10.32;8.20;;;;;;;22.56;52.70;98928.44;1695406;84;25674;-88
2022/05/05 08:49:26;;;;;;;11.88;8.53;;;;;;;22.59;52.67;98933.08;1695277;84;25437;-88
2022/05/05 08:51:54;;;;;;;10.32;8.13;;;;;;;22.62;52.66;98928.11;1695023;84;25678;-89
2022/05/05 08:54:25;;;;;;;11.73;8.25;;;;;;;22.64;52.66;98931.30;1695865;84;25451;-88
2022/05/05 08:56:52;;;;;;;13.72;8.68;;;;;;;22.65;52.67;98929.52;1692129;83;27408;-88
2022/05/05 08:59:20;;;;;;;11.05;7.78;;;;;;;22.68;52.66;98932.11;1695372;84;25766;-88
2022/05/05 09:01:46;;;;;;;9.95;7.95;;;;;;;22.71;52.70;98924.35;1695563;84;25654;-88
2022/05/05 09:04:13;;;;;;;11.53;8.03;;;;;;;22.73;52.74;98930.95;1695521;84;25977;-88
2022/05/05 09:06:48;;;;;;;10.13;7.72;;;;;;;22.74;52.76;98930.55;1695448;84;25465;-88
2022/05/05 09:09:34;;;;;;;11.22;7.60;;;;;;;22.75;52.72;98930.78;1695037;84;27380;-89
2022/05/05 09:12:18;;;;;;;10.15;7.62;;;;;;;22.77;52.71;98928.38;1695470;84;25523;-90
2022/05/05 09:14:53;;;;;;;8.95;7.40;;;;;;;22.79;52.74;98926.00;1695454;84;25645;-89
2022/05/05 09:17:25;;;;;;;9.30;7.67;;;;;;;22.80;52.73;98927.59;1695165;84;26047;-89
2022/05/05 09:19:55;;;;;;;8.70;7.60;;;;;;;22.81;52.68;98926.43;1695379;84;25492;-90
2022/05/05 09:22:25;;;;;;;10.30;7.53;;;;;;;22.82;52.74;98928.61;1687220;83;27480;-90
2022/05/05 09:24:56;;;;;;;8.70;7.30;;;;;;;22.84;52.72;98928.22;1684613;84;25643;-89
2022/05/05 09:27:33;;;;;;;9.55;7.20;;;;;;;22.86;52.71;98927.23;1684500;85;25817;-89
2022/05/05 09:30:10;;;;;;;9.53;7.30;;;;;;;22.86;52.70;98925.84;1684912;85;26054;-89
2022/05/05 09:32:43;;;;;;;9.25;7.40;;;;;;;22.86;52.72;98930.84;1684649;84;25648;-89
2022/05/05 09:35:15;;;;;;;7.85;6.95;;;;;;;22.87;52.67;98919.86;1684692;84;27363;-89
2022/05/05 09:37:50;;;;;;;10.70;7.30;;;;;;;22.88;52.69;98920.67;1684745;85;25508;-87
2022/05/05 09:40:20;;;;;;;8.15;6.85;;;;;;;22.89;52.69;98926.45;1684769;84;25693;-88
2022/05/05 09:42:56;;;;;;;;;;;;;;;;;;;;;
2022/05/05 09:45:33;;;;;;;8.50;6.80;;;;;;;22.91;52.66;98915.08;1684692;84;25658;-89
2022/05/05 09:48:02;;;;;;;9.10;7.05;;;;;;;22.92;52.60;98918.10;1684704;85;27535;-87
2022/05/05 09:50:34;;;;;;;9.88;6.97;;;;;;;22.93;52.61;98911.90;1684837;84;25618;-89
2022/05/05 09:58:38;;;;;;;8.50;7.08;;;;;;;22.96;52.56;98904.72;1684626;85;25434;-90
2022/05/05 10:01:09;;;;;;;9.53;6.08;;;;;;;22.96;52.52;98906.11;1684726;85;27596;-89
2022/05/05 10:06:35;;;;;;;7.75;6.20;;;;;;;22.97;52.58;98909.13;1684638;85;25477;-89
2022/05/05 10:09:12;;;;;;;7.00;5.97;;;;;;;22.94;52.59;98904.52;1684655;84;26000;-89
2022/05/05 10:11:38;;;;;;;8.25;6.50;;;;;;;22.95;52.64;98903.94;1684548;85;25500;-88
2022/05/05 10:14:13;;;;;;;7.87;6.08;;;;;;;22.96;52.75;98906.92;1684903;85;27121;-88
2022/05/05 10:16:42;;;;;;;8.13;6.35;;;;;;;22.95;52.79;98899.74;1684573;85;25721;-89
2022/05/05 10:19:10;;;;;;;7.65;6.55;;;;;;;22.96;52.83;98902.73;1684431;85;25801;-89
2022/05/05 10:22:03;;;;;;;9.00;6.45;;;;;;;22.97;52.93;98895.94;1684536;83;25989;-89
2022/05/05 10:24:32;;;;;;;9.15;6.75;;;;;;;22.97;53.02;98892.37;1684709;85;25667;-90
2022/05/05 10:27:04;;;;;;;8.73;6.78;;;;;;;22.97;53.08;98895.16;1685209;84;27470;-90
2022/05/05 10:29:40;;;;;;;8.18;6.15;;;;;;;22.97;53.14;98888.95;1684923;84;25663;-89
2022/05/05 10:32:23;;;;;;;7.10;6.37;;;;;;;22.97;53.10;98882.59;1684404;85;25759;-89
2022/05/05 10:34:56;;;;;;;7.20;6.50;;;;;;;22.98;53.14;98890.58;1684838;84;26055;-88
2022/05/05 10:37:37;;;;;;;9.00;7.20;;;;;;;22.99;53.22;98884.38;1684439;85;25778;-89
2022/05/05 10:40:09;;;;;;;7.47;6.67;;;;;;;22.98;53.26;98881.38;1684480;85;27445;-89
2022/05/05 10:42:45;;;;;;;10.43;7.12;;;;;;;22.98;53.28;98878.00;1684548;85;25453;-90
2022/05/05 10:45:33;;;;;;;7.78;6.42;;;;;;;23.00;53.28;98885.99;1684408;85;25428;-89
2022/05/05 10:48:06;;;;;;;8.58;6.75;;;;;;;22.99;53.33;98876.80;1684686;84;26761;-88
2022/05/05 10:50:56;;;;;;;8.60;6.65;;;;;;;23.00;53.35;98879.00;1684568;85;25674;-89
2022/05/05 10:53:40;;;;;;;8.18;6.75;;;;;;;23.01;53.32;98878.61;1684451;85;26017;-89
2022/05/05 10:56:26;;;;;;;7.65;6.35;;;;;;;23.00;53.36;98877.61;1681506;85;25718;-88
2022/05/05 10:59:09;;;;;;;7.28;6.30;;;;;;;23.01;53.38;98876.41;1684004;85;25712;-89
2022/05/05 11:01:50;;;;;;;7.75;6.50;;;;;;;22.99;53.41;98876.80;1684569;85;26014;-88
2022/05/05 11:04:23;;;;;;;6.87;5.78;;;;;;;22.98;53.45;98870.20;1684719;84;25502;-89
2022/05/05 11:07:18;;;;;;;6.92;6.10;;;;;;;22.98;53.48;98873.00;1684319;84;26238;-88
2022/05/05 11:09:45;;;;;;;6.80;5.80;;;;;;;22.98;53.51;98864.03;1683422;85;25829;-88
2022/05/05 11:12:21;;;;;;;6.62;5.55;;;;;;;22.98;53.45;98861.82;1683714;85;25758;-90
2022/05/05 11:23:49;;;;;;;7.70;6.35;;;;;;;22.98;53.58;98860.42;1688687;84;25862;-89
2022/05/05 11:26:18;;;;;;;8.45;6.12;;;;;;;22.94;53.61;98865.41;1704031;84;25982;-89
2022/05/05 11:28:47;;;;;;;8.55;6.58;;;;;;;22.94;53.57;98865.41;1688581;84;25981;-88
2022/05/05 11:31:19;;;;;;;7.47;6.50;;;;;;;22.95;53.60;98863.42;1688864;84;25770;-89
2022/05/05 11:33:52;;;;;;;7.87;6.37;;;;;;;22.94;53.75;98858.41;1689766;83;27356;-88
2022/05/05 11:36:19;;;;;;;8.50;6.95;;;;;;;22.93;53.88;98855.43;1689627;84;25898;-89
2022/05/05 11:38:45;;;;;;;7.25;6.05;;;;;;;22.93;53.85;98852.63;1689810;84;25728;-88
2022/05/05 11:41:13;;;;;;;7.28;6.33;;;;;;;22.93;53.70;98860.20;1689647;84;26056;-89
2022/05/05 11:46:26;;;;;;;8.58;6.72;;;;;;;22.93;53.31;98854.62;1689781;84;25653;-89
2022/05/05 11:48:55;;;;;;;8.05;7.25;;;;;;;22.92;53.37;98852.44;1689855;84;25612;-88
2022/05/05 11:51:30;;;;;;;7.33;6.62;;;;;;;22.92;53.45;98852.44;1689323;84;25728;-89
2022/05/05 11:54:10;;;;;;;8.03;6.92;;;;;;;22.91;53.67;98849.42;1688226;84;26043;-89
2022/05/05 11:56:44;;;;;;;10.23;6.62;;;;;;;22.91;53.70;98846.62;1690092;84;25585;-87
2022/05/05 12:02:11;;;;;;;9.18;7.12;;;;;;;22.90;53.40;98836.66;1689785;84;25479;-90
2022/05/05 12:04:45;;;;;;;8.80;7.05;;;;;;;22.91;53.58;98834.67;1690157;84;25517;-90
2022/05/05 12:07:21;;;;;;;7.70;6.90;;;;;;;22.90;53.79;98833.05;1689872;84;25993;-89
2022/05/05 12:09:57;;;;;;;9.88;7.10;;;;;;;22.88;53.77;98836.23;1689668;84;25700;-90
2022/05/05 12:12:27;;;;;;;9.70;7.10;;;;;;;22.89;53.70;98831.46;1691131;83;27483;-89
2022/05/05 12:15:04;;;;;;;9.60;6.97;;;;;;;22.88;53.63;98829.25;1690050;84;25664;-90
2022/05/05 12:17:45;;;;;;;14.28;7.70;;;;;;;22.88;53.67;98822.89;1689580;84;25454;-89
2022/05/05 12:20:14;;;;;;;10.95;7.33;;;;;;;22.88;53.86;98824.28;1689562;84;26089;-90